Time;durP1;ratioP1;P1;durP2;ratioP2;P2;SDS_P1;SDS_P2;PMS_P1;PMS_P2;Temp;Humidity;BMP_temperature;BMP_pressure;BME280_temperature;BME280_humidity;BME280_pressure;Samples;Min_cycle;Max_cycle;Signal;HPM_P1;HPM_P2
2021/12/01 00:00:36;;;;;;;;;0.00;0.00;;;;;8.72;71.09;100637.06;5061127;28;45375;-82
2021/12/01 00:03:02;;;;;;;;;0.00;0.00;;;;;8.69;71.35;100625.75;5064134;28;45471;-82
2021/12/01 00:05:30;;;;;;;;;0.00;0.00;;;;;8.73;71.00;100641.41;5060512;28;45412;-82
2021/12/01 00:07:56;;;;;;;;;0.00;0.00;;;;;8.94;70.91;100663.34;5059077;28;45424;-82
2021/12/01 00:10:24;;;;;;;;;0.00;0.00;;;;;8.93;71.53;100653.81;5063178;28;45509;-82
2021/12/01 00:12:50;;;;;;;;;0.00;0.00;;;;;8.93;71.34;100650.31;5060661;28;45695;-82
2021/12/01 00:15:16;;;;;;;;;0.00;0.00;;;;;8.47;71.30;100579.59;5055915;28;45407;-84
2021/12/01 00:17:41;;;;;;;;;1.00;1.00;;;;;8.72;71.78;100599.84;5052222;28;45442;-83
2021/12/01 00:20:10;;;;;;;;;0.00;0.00;;;;;8.52;71.38;100561.50;5052274;28;45593;-83
2021/12/01 00:22:37;;;;;;;;;1.00;0.00;;;;;8.89;71.38;100601.81;5044978;28;45483;-83
2021/12/01 00:25:04;;;;;;;;;0.00;0.00;;;;;8.89;71.77;100601.81;5057126;28;45533;-83
2021/12/01 00:27:30;;;;;;;;;0.00;0.00;;;;;8.75;71.54;100571.34;5043725;28;45450;-83
2021/12/01 00:29:57;;;;;;;;;0.00;0.00;;;;;8.66;71.67;100532.28;5042672;28;45269;-83
2021/12/01 00:32:23;;;;;;;;;0.00;0.00;;;;;8.81;71.78;100550.66;5060975;28;45543;-83
2021/12/01 00:34:48;;;;;;;;;0.00;0.00;;;;;8.48;71.87;100490.53;5062493;28;45367;-84
2021/12/01 00:37:14;;;;;;;;;0.00;0.00;;;;;8.81;72.08;100535.09;5062806;28;45363;-82
2021/12/01 00:39:39;;;;;;;;;0.00;0.00;;;;;8.85;71.95;100523.91;5064189;28;45373;-84
2021/12/01 00:42:06;;;;;;;;;0.50;0.50;;;;;8.80;71.83;100520.38;5051132;28;45677;-84
2021/12/01 00:44:34;;;;;;;;;0.00;0.00;;;;;8.96;72.06;100530.94;5043287;28;46012;-83
2021/12/01 00:49:30;;;;;;;;;0.00;0.00;;;;;8.98;71.95;100529.25;5061612;28;45463;-84
2021/12/01 00:51:55;;;;;;;;;0.00;0.00;;;;;8.66;71.78;100457.91;5049442;28;45371;-83
2021/12/01 00:54:21;;;;;;;;;1.00;0.00;;;;;8.85;71.96;100494.50;5058236;28;45657;-82
2021/12/01 00:56:49;;;;;;;;;0.00;0.00;;;;;9.05;72.07;100505.09;5061381;28;45442;-83
2021/12/01 00:59:14;;;;;;;;;0.00;0.00;;;;;8.96;71.64;100479.00;5061792;28;45442;-82
2021/12/01 01:01:40;;;;;;;;;0.00;0.00;;;;;8.67;72.12;100438.88;5052492;28;45434;-83
2021/12/01 01:04:05;;;;;;;;;0.00;0.00;;;;;8.59;71.84;100419.78;5044268;28;45342;-83
2021/12/01 01:06:30;;;;;;;;;0.75;0.00;;;;;8.89;72.09;100472.00;5057363;28;45517;-83
2021/12/01 01:08:56;;;;;;;;;0.00;0.00;;;;;9.06;71.82;100490.38;5058524;28;45387;-83
2021/12/01 01:16:50;;;;;;;;;0.00;0.00;;;;;9.05;71.96;100463.53;5059168;28;45408;-83
2021/12/01 01:19:18;;;;;;;;;0.00;0.00;;;;;8.61;71.66;100394.72;5043924;28;45364;-84
2021/12/01 01:21:48;;;;;;;;;0.00;0.00;;;;;8.56;71.93;100383.41;5052945;28;46016;-84
2021/12/01 01:24:14;;;;;;;;;1.00;1.00;;;;;8.90;71.42;100435.69;5061246;28;45554;-83
2021/12/01 01:26:40;;;;;;;;;0.00;0.00;;;;;8.98;71.82;100441.81;5060057;28;45450;-82
2021/12/01 01:29:06;;;;;;;;;0.00;0.00;;;;;9.16;71.79;100449.81;5057518;28;45437;-82
2021/12/01 01:31:31;;;;;;;;;0.00;0.00;;;;;8.72;71.38;100366.28;5052932;28;46006;-82
2021/12/01 01:33:58;;;;;;;;;0.00;0.00;;;;;9.15;71.40;100425.53;5068190;28;45387;-82
2021/12/01 01:36:24;;;;;;;;;0.00;0.00;;;;;8.50;71.25;100337.47;5065860;28;45285;-82
2021/12/01 01:38:50;;;;;;;;;0.00;0.00;;;;;9.12;71.74;100433.31;5064657;28;45267;-82
2021/12/01 01:41:17;;;;;;;;;0.00;0.00;;;;;9.18;71.24;100432.50;5062506;28;45513;-82
2021/12/01 01:43:44;;;;;;;;;0.00;0.00;;;;;8.55;71.56;100319.41;5052993;28;45533;-83
2021/12/01 01:46:11;;;;;;;;;0.25;0.00;;;;;9.05;71.64;100397.75;5055660;28;45394;-83
2021/12/01 01:48:53;;;;;;;;;0.00;0.00;;;;;9.25;71.50;100419.59;5045654;28;45565;-83
2021/12/01 01:51:23;;;;;;;;;0.00;0.00;;;;;8.84;71.58;100339.56;5054598;28;45497;-83
2021/12/01 01:53:51;;;;;;;;;0.00;0.00;;;;;9.27;71.74;100404.00;5052814;28;45359;-83
2021/12/01 01:56:17;;;;;;;;;0.00;0.00;;;;;8.62;71.74;100305.63;5045720;28;45369;-83
2021/12/01 01:58:42;;;;;;;;;0.75;0.25;;;;;8.63;72.19;100296.13;5060110;28;45452;-83
2021/12/01 02:03:58;;;;;;;;;0.00;0.00;;;;;9.15;72.15;100375.34;5070575;28;45292;-82
2021/12/01 02:06:23;;;;;;;;;0.00;0.00;;;;;8.78;71.97;100316.16;5067798;28;45539;-82
2021/12/01 02:08:51;;;;;;;;;0.00;0.00;;;;;8.96;71.97;100349.19;5062029;28;45379;-83
2021/12/01 02:11:18;;;;;;;;;0.00;0.00;;;;;8.68;72.40;100302.22;5061667;28;47300;-83
2021/12/01 02:13:44;;;;;;;;;0.00;0.00;;;;;9.19;72.50;100364.13;5071659;28;45388;-82
2021/12/01 02:16:11;;;;;;;;;0.00;0.00;;;;;8.96;72.23;100321.53;5053151;28;45292;-84
2021/12/01 02:18:40;;;;;;;;;0.00;0.00;;;;;8.82;72.41;100287.66;5043335;28;45465;-83
2021/12/01 02:21:11;;;;;;;;;0.00;0.00;;;;;9.15;72.70;100346.78;5046834;28;48070;-83
2021/12/01 02:23:42;;;;;;;;;0.00;0.00;;;;;9.14;72.69;100340.72;5079549;28;45415;-83
2021/12/01 02:26:08;;;;;;;;;0.00;0.00;;;;;9.11;72.56;100328.56;5080596;28;45441;-83
2021/12/01 02:28:35;;;;;;;;;1.00;0.00;;;;;8.72;72.52;100254.69;5077342;28;45457;-83
2021/12/01 02:31:01;;;;;;;;;0.00;0.00;;;;;8.39;72.53;100199.03;5062802;28;45384;-83
2021/12/01 02:33:27;;;;;;;;;0.00;0.00;;;;;8.61;72.69;100233.84;5078999;28;45452;-83
2021/12/01 02:35:52;;;;;;;;;0.00;0.00;;;;;9.12;72.95;100301.75;5079162;28;45805;-83
2021/12/01 02:38:19;;;;;;;;;0.00;0.00;;;;;9.07;72.96;100290.44;5065201;28;45384;-83
2021/12/01 02:40:45;;;;;;;;;0.00;0.00;;;;;8.90;72.86;100264.34;5044093;28;46278;-83
2021/12/01 02:43:11;;;;;;;;;0.00;0.00;;;;;8.94;73.16;100262.66;5065591;28;45392;-83
2021/12/01 02:45:37;;;;;;;;;0.00;0.00;;;;;8.60;73.49;100214.81;5070242;28;45510;-83
2021/12/01 02:48:02;;;;;;;;;1.00;0.00;;;;;8.78;73.52;100222.72;5060534;28;45387;-84
2021/12/01 02:50:28;;;;;;;;;1.00;0.00;;;;;8.74;74.37;100219.25;5075928;28;45697;-82
2021/12/01 02:52:54;;;;;;;;;0.00;0.00;;;;;8.95;74.29;100243.63;5079425;28;45555;-83
2021/12/01 02:55:20;;;;;;;;;0.00;0.00;;;;;8.92;74.24;100241.88;5082616;28;45497;-83
2021/12/01 02:58:24;;;;;;;;;0.00;0.00;;;;;8.90;74.70;100225.41;5075036;28;45401;-82
2021/12/01 03:00:52;;;;;;;;;0.00;0.00;;;;;8.57;74.44;100165.47;5041865;28;46082;-82
2021/12/01 03:03:17;;;;;;;;;0.00;0.00;;;;;8.22;74.52;100096.00;5061987;28;45537;-83
2021/12/01 03:05:47;;;;;;;;;0.00;0.00;;;;;8.78;75.03;100171.69;5063717;28;45402;-83
2021/12/01 03:08:17;;;;;;;;;0.00;0.00;;;;;8.56;75.08;100142.13;5064278;28;45617;-82
2021/12/01 03:10:48;;;;;;;;;0.00;0.00;;;;;8.67;75.25;100150.84;5062858;28;46442;-83
2021/12/01 03:13:15;;;;;;;;;0.00;0.00;;;;;8.41;75.25;100104.81;5064241;28;45394;-83
2021/12/01 03:15:41;;;;;;;;;0.00;0.00;;;;;8.89;75.21;100169.19;5064214;28;45417;-82
2021/12/01 03:18:07;;;;;;;;;0.00;0.00;;;;;8.56;75.03;100105.81;5046020;28;45482;-82
2021/12/01 03:20:32;;;;;;;;;0.00;0.00;;;;;8.82;75.13;100157.88;5064023;28;46351;-82
2021/12/01 03:22:58;;;;;;;;;0.00;0.00;;;;;8.45;74.86;100092.72;5063991;28;45233;-82
2021/12/01 03:25:23;;;;;;;;;0.00;0.00;;;;;8.46;75.30;100068.53;5067970;28;45605;-82
2021/12/01 03:27:49;;;;;;;;;0.00;0.00;;;;;8.44;75.07;100076.31;5067263;28;45300;-81
2021/12/01 03:30:15;;;;;;;;;0.00;0.00;;;;;8.68;75.32;100111.09;5065353;28;45288;-82
2021/12/01 03:32:42;;;;;;;;;0.00;0.00;;;;;8.77;75.19;100118.06;5063798;28;45521;-81
2021/12/01 03:35:13;;;;;;;;;0.00;0.00;;;;;8.40;75.69;100042.53;5063975;28;45486;-82
2021/12/01 03:37:40;;;;;;;;;0.00;0.00;;;;;8.37;76.39;100049.44;5064282;28;45397;-83
2021/12/01 03:40:07;;;;;;;;;0.00;0.00;;;;;8.18;76.15;100021.66;5063613;28;46058;-82
2021/12/01 03:42:33;;;;;;;;;0.00;0.00;;;;;8.17;76.37;100002.63;5063746;28;45507;-82
2021/12/01 03:44:59;;;;;;;;;0.00;0.00;;;;;8.37;76.39;100033.03;5063713;28;45480;-82
2021/12/01 03:47:26;;;;;;;;;0.00;0.00;;;;;8.43;76.55;100025.28;5080167;28;45515;-82
2021/12/01 03:49:52;;;;;;;;;0.00;0.00;;;;;8.51;76.56;100029.66;5045393;28;46299;-82
2021/12/01 03:52:18;;;;;;;;;0.00;0.00;;;;;8.66;77.21;100041.84;5068156;28;45421;-82
2021/12/01 03:54:45;;;;;;;;;0.00;0.00;;;;;8.78;77.50;100057.50;5063758;28;45353;-83
2021/12/01 03:57:12;;;;;;;;;0.00;0.00;;;;;8.51;77.46;100020.13;5069079;28;45440;-83
2021/12/01 03:59:38;;;;;;;;;0.00;0.00;;;;;8.64;77.76;100036.69;5064392;28;46110;-82
2021/12/01 04:02:04;;;;;;;;;0.00;0.00;;;;;8.65;78.15;100014.19;5064190;28;45448;-83
2021/12/01 04:04:29;;;;;;;;;0.00;0.00;;;;;8.68;77.87;100014.19;5062099;28;45401;-83
2021/12/01 04:06:55;;;;;;;;;0.00;0.00;;;;;8.22;77.87;99933.53;5063197;28;45456;-82
2021/12/01 04:09:21;;;;;;;;;0.00;0.00;;;;;8.47;77.53;99951.81;5063055;28;45799;-82
2021/12/01 04:11:46;;;;;;;;;0.00;0.00;;;;;8.94;78.14;100024.69;5045543;28;45552;-83
2021/12/01 04:14:11;;;;;;;;;1.00;0.00;;;;;8.52;77.88;99940.59;5063356;28;45371;-82
2021/12/01 04:16:37;;;;;;;;;0.00;0.00;;;;;8.94;77.98;100008.25;5063355;28;45387;-82
2021/12/01 04:19:02;;;;;;;;;0.00;0.00;;;;;8.53;77.93;99937.13;5063200;28;45295;-82
2021/12/01 04:21:28;;;;;;;;;0.00;0.00;;;;;8.93;78.35;99991.81;5080516;28;45171;-82
2021/12/01 04:23:55;;;;;;;;;1.00;0.00;;;;;8.72;78.10;99946.75;5064160;28;45273;-82
2021/12/01 04:26:24;;;;;;;;;0.00;0.00;;;;;8.59;78.23;99911.25;5064397;28;45371;-82
2021/12/01 04:28:51;;;;;;;;;0.00;0.00;;;;;8.99;77.98;99960.69;5078807;28;47015;-82
2021/12/01 04:31:16;;;;;;;;;0.00;0.00;;;;;8.55;78.21;99892.19;5062917;28;45403;-82
2021/12/01 04:33:42;;;;;;;;;0.00;0.00;;;;;8.76;78.73;99928.59;5062840;28;45379;-82
2021/12/01 04:36:08;;;;;;;;;0.00;0.00;;;;;8.90;78.76;99941.59;5062814;28;45509;-82
2021/12/01 04:38:34;;;;;;;;;0.00;0.00;;;;;8.31;78.58;99834.16;5062436;28;46213;-83
2021/12/01 04:40:59;;;;;;;;;0.00;0.00;;;;;8.48;78.27;99844.59;5062474;28;45273;-83
2021/12/01 04:43:28;;;;;;;;;0.00;0.00;;;;;8.99;78.40;99921.75;5064013;28;45293;-83
2021/12/01 04:45:58;;;;;;;;;0.50;0.00;;;;;8.24;78.66;99799.56;5064520;28;45308;-83
2021/12/01 04:48:25;;;;;;;;;0.00;0.00;;;;;8.76;78.47;99872.34;5067551;28;45413;-83
2021/12/01 04:50:51;;;;;;;;;0.00;0.00;;;;;8.64;78.44;99838.63;5065803;28;45328;-83
2021/12/01 04:53:16;;;;;;;;;0.00;0.00;;;;;8.44;78.56;99814.31;5063487;28;45667;-83
2021/12/01 04:55:41;;;;;;;;;0.00;0.00;;;;;8.69;78.74;99826.50;5062831;28;45629;-83
2021/12/01 04:58:07;;;;;;;;;0.00;0.00;;;;;8.36;78.85;99782.28;5062488;28;46505;-84
2021/12/01 05:00:35;;;;;;;;;0.00;0.00;;;;;8.72;78.88;99834.28;5061805;28;45727;-83
2021/12/01 05:03:01;;;;;;;;;0.00;0.00;;;;;8.65;78.55;99806.59;5061977;28;45473;-84
2021/12/01 05:05:26;;;;;;;;;0.00;0.00;;;;;8.81;79.00;99849.00;5061932;28;45458;-83
2021/12/01 05:07:52;;;;;;;;;0.00;0.00;;;;;8.54;78.45;99804.00;5061669;28;45246;-84
2021/12/01 05:10:18;;;;;;;;;0.00;0.00;;;;;8.71;79.50;99824.78;5061297;28;45813;-83
2021/12/01 05:12:43;;;;;;;;;0.00;0.00;;;;;8.44;79.16;99779.72;5062399;28;45378;-83
2021/12/01 05:15:09;;;;;;;;;0.00;0.00;;;;;8.29;79.21;99749.44;5065980;28;45286;-84
2021/12/01 05:17:35;;;;;;;;;0.00;0.00;;;;;8.80;79.67;99834.31;5064853;28;45465;-83
2021/12/01 05:20:01;;;;;;;;;0.50;0.00;;;;;8.57;79.37;99798.78;5062118;28;45279;-83
2021/12/01 05:22:26;;;;;;;;;0.00;0.00;;;;;8.48;79.56;99778.88;5061814;28;45540;-83
2021/12/01 05:24:52;;;;;;;;;0.00;0.00;;;;;8.59;79.61;99810.94;5061604;28;45513;-84
2021/12/01 05:27:18;;;;;;;;;0.00;0.00;;;;;8.11;80.05;99726.06;5062177;28;45698;-84
2021/12/01 05:29:43;;;;;;;;;0.00;0.00;;;;;8.10;80.02;99724.34;5061662;28;45229;-85
2021/12/01 05:32:09;;;;;;;;;0.00;0.00;;;;;8.27;79.93;99758.97;5083858;27;45439;-85
2021/12/01 05:34:35;;;;;;;;;0.00;0.00;;;;;8.16;80.18;99730.41;5063960;28;45442;-83
2021/12/01 05:37:00;;;;;;;;;0.00;0.00;;;;;8.13;80.56;99694.09;5084756;28;46272;-84
2021/12/01 05:39:29;;;;;;;;;0.00;0.00;;;;;8.43;79.84;99762.44;5082199;28;45420;-84
2021/12/01 05:41:56;;;;;;;;;0.00;0.00;;;;;8.29;79.89;99734.75;5089508;28;45230;-85
2021/12/01 05:44:22;;;;;;;;;0.00;0.00;;;;;8.80;80.15;99829.13;5066558;28;45375;-85
2021/12/01 05:46:47;;;;;;;;;0.00;0.00;;;;;8.78;79.76;99817.84;5081855;28;45398;-85
2021/12/01 05:49:13;;;;;;;;;0.00;0.00;;;;;8.77;80.18;99801.44;5081875;28;45460;-83
2021/12/01 05:51:38;;;;;;;;;0.00;0.00;;;;;8.74;80.50;99798.84;5064659;28;45347;-83
2021/12/01 05:54:04;;;;;;;;;0.00;0.00;;;;;8.31;80.18;99701.91;5061726;28;45473;-84
2021/12/01 05:56:30;;;;;;;;;0.00;0.00;;;;;8.37;79.80;99717.47;5061745;28;45398;-86
2021/12/01 05:58:56;;;;;;;;;1.00;0.00;;;;;8.67;79.82;99755.59;5061638;28;45328;-84
2021/12/01 06:01:22;;;;;;;;;1.00;0.00;;;;;8.36;79.86;99696.72;5062054;28;45236;-83
2021/12/01 06:03:47;;;;;;;;;0.75;0.75;;;;;8.71;80.07;99753.00;5064786;28;45489;-83
2021/12/01 06:06:13;;;;;;;;;0.00;0.00;;;;;8.42;79.97;99690.69;5063842;28;46115;-83
2021/12/01 06:08:38;;;;;;;;;0.00;0.00;;;;;8.48;80.45;99699.31;5063764;28;45351;-83
2021/12/01 06:11:04;;;;;;;;;0.00;0.00;;;;;8.94;80.20;99756.47;5062252;28;44903;-84
2021/12/01 06:13:30;;;;;;;;;0.00;0.00;;;;;8.97;79.69;99754.72;5049243;28;45506;-84
2021/12/01 06:15:55;;;;;;;;;0.00;0.00;;;;;8.74;79.79;99700.22;5077206;28;46536;-82
2021/12/01 06:18:21;;;;;;;;;0.00;0.00;;;;;8.38;80.01;99640.53;5058570;28;45441;-82
2021/12/01 06:20:46;;;;;;;;;0.00;0.00;;;;;8.69;80.01;99699.34;5056690;28;45766;-84
2021/12/01 06:23:13;;;;;;;;;0.00;0.00;;;;;8.34;80.11;99631.91;5060641;28;45516;-84
2021/12/01 06:25:39;;;;;;;;;0.00;0.00;;;;;8.64;79.72;99672.56;5059603;28;45416;-84
2021/12/01 06:28:04;;;;;;;;;0.00;0.00;;;;;9.05;80.12;99739.16;5056464;28;45547;-84
2021/12/01 06:30:34;;;;;;;;;0.00;0.00;;;;;8.86;79.74;99709.75;5064049;28;45392;-83
2021/12/01 06:33:00;;;;;;;;;0.00;0.00;;;;;8.43;79.90;99632.75;5066334;28;45620;-84
2021/12/01 06:35:26;;;;;;;;;0.00;0.00;;;;;8.71;80.27;99669.09;5062611;28;46421;-84
2021/12/01 06:37:53;;;;;;;;;0.00;0.00;;;;;8.61;80.28;99642.31;5063761;28;45347;-84
2021/12/01 06:40:19;;;;;;;;;0.00;0.00;;;;;8.96;80.21;99705.41;5064705;28;45404;-83
2021/12/01 06:42:45;;;;;;;;;0.00;0.00;;;;;9.09;80.24;99720.09;5063590;28;45603;-82
2021/12/01 06:45:12;;;;;;;;;0.00;0.00;;;;;9.07;80.28;99714.03;5059123;28;46293;-83
2021/12/01 06:47:39;;;;;;;;;0.00;0.00;;;;;8.86;80.66;99687.22;5060332;28;45564;-83
2021/12/01 06:50:06;;;;;;;;;0.00;0.00;;;;;8.96;80.76;99690.69;5063300;28;45380;-83
2021/12/01 06:52:32;;;;;;;;;0.00;0.00;;;;;9.04;80.61;99703.69;5056194;28;45486;-83
2021/12/01 06:54:58;;;;;;;;;0.00;0.00;;;;;9.12;80.47;99703.63;5043956;28;47492;-81
2021/12/01 06:57:25;;;;;;;;;0.00;0.00;;;;;8.93;80.41;99658.69;5060637;28;45306;-80
2021/12/01 06:59:50;;;;;;;;;0.00;0.00;;;;;9.18;80.89;99713.13;5063182;28;45443;-81
2021/12/01 07:02:17;;;;;;;;;0.00;0.00;;;;;8.99;81.09;99672.53;5064789;28;45900;-83
2021/12/01 07:04:43;;;;;;;;;0.00;0.00;;;;;8.97;81.09;99663.88;5063469;28;46059;-81
2021/12/01 07:07:08;;;;;;;;;0.00;0.00;;;;;8.85;80.70;99630.16;5058778;28;45451;-81
2021/12/01 07:09:34;;;;;;;;;0.00;0.00;;;;;9.06;80.88;99657.78;5057677;28;45340;-82
2021/12/01 07:11:59;;;;;;;;;0.00;0.00;;;;;9.05;81.10;99652.59;5060293;28;45376;-81
2021/12/01 07:14:24;;;;;;;;;0.00;0.00;;;;;9.08;80.78;99648.28;5078865;28;47496;-82
2021/12/01 07:16:50;;;;;;;;;0.00;0.00;;;;;9.31;80.90;99688.03;5062391;28;45293;-81
2021/12/01 07:19:15;;;;;;;;;0.00;0.00;;;;;9.16;81.02;99658.63;5057248;28;45577;-81
2021/12/01 07:21:41;;;;;;;;;0.00;0.00;;;;;9.31;80.93;99688.88;5043599;28;45489;-80
2021/12/01 07:24:07;;;;;;;;;0.00;0.00;;;;;9.29;81.04;99672.44;5077283;28;46061;-81
2021/12/01 07:26:32;;;;;;;;;0.00;0.00;;;;;9.20;81.41;99657.75;5065041;28;45497;-82
2021/12/01 07:28:58;;;;;;;;;0.00;0.00;;;;;9.30;81.25;99671.56;5062156;28;45364;-82
2021/12/01 07:31:23;;;;;;;;;0.00;0.00;;;;;9.36;81.05;99668.09;5063891;28;45535;-82
2021/12/01 07:33:49;;;;;;;;;0.00;0.00;;;;;9.11;81.33;99637.88;5060316;28;46562;-81
2021/12/01 07:36:16;;;;;;;;;0.00;0.00;;;;;9.49;81.23;99692.28;5042976;28;45426;-80
2021/12/01 07:38:41;;;;;;;;;0.00;0.00;;;;;9.53;81.40;99703.53;5048286;28;45403;-80
2021/12/01 07:41:06;;;;;;;;;0.00;0.00;;;;;9.41;81.58;99686.25;5062102;28;45389;-83
2021/12/01 07:43:32;;;;;;;;;0.00;0.00;;;;;9.43;80.97;99666.34;5078674;28;45632;-82
2021/12/01 07:46:00;;;;;;;;;0.00;0.00;;;;;9.58;81.06;99692.25;5081422;27;45354;-81
2021/12/01 07:48:25;;;;;;;;;0.00;0.00;;;;;9.60;81.37;99695.72;5092995;27;45452;-83
2021/12/01 07:50:51;;;;;;;;;2.00;0.00;;;;;9.33;81.23;99647.31;5071936;28;45308;-82
2021/12/01 07:53:16;;;;;;;;;0.00;0.00;;;;;9.63;81.12;99687.91;5080391;28;46586;-84
2021/12/01 07:55:42;;;;;;;;;0.00;0.00;;;;;9.22;80.92;99600.63;5069473;28;45410;-82
2021/12/01 07:58:07;;;;;;;;;0.00;0.00;;;;;9.70;80.62;99672.25;5074751;28;45790;-81
2021/12/01 08:00:32;;;;;;;;;0.00;0.00;;;;;9.50;80.37;99635.13;5067900;28;45278;-80
2021/12/01 08:02:58;;;;;;;;;0.00;0.00;;;;;9.24;80.60;99571.19;5058145;28;45473;-80
2021/12/01 08:05:23;;;;;;;;;0.00;0.00;;;;;9.63;80.38;99617.75;5083804;27;45282;-80
2021/12/01 08:07:50;;;;;;;;;0.00;0.00;;;;;9.63;80.16;99625.53;5065150;28;45316;-83
2021/12/01 08:10:16;;;;;;;;;0.00;0.00;;;;;9.67;80.18;99638.50;5088222;27;45511;-82
2021/12/01 08:12:42;;;;;;;;;0.00;0.00;;;;;9.87;79.95;99654.84;5081117;28;46607;-82
2021/12/01 08:15:08;;;;;;;;;0.00;0.00;;;;;9.84;79.70;99639.28;5055662;28;45275;-83
2021/12/01 08:17:33;;;;;;;;;0.00;0.00;;;;;9.95;79.18;99647.00;5063432;28;45342;-81
2021/12/01 08:19:59;;;;;;;;;0.00;0.00;;;;;10.01;79.48;99649.56;5065720;28;45306;-81
2021/12/01 08:22:26;;;;;;;;;0.00;0.00;;;;;9.76;79.27;99595.16;5072577;28;45358;-81
2021/12/01 08:24:52;;;;;;;;;0.00;0.00;;;;;9.78;79.11;99596.88;5072064;28;45318;-81
2021/12/01 08:27:17;;;;;;;;;0.00;0.00;;;;;9.86;78.97;99618.47;5068083;28;45422;-81
2021/12/01 08:29:43;;;;;;;;;0.00;0.00;;;;;10.03;79.15;99646.97;5080640;28;46158;-81
2021/12/01 08:32:08;;;;;;;;;0.00;0.00;;;;;9.78;79.38;99608.13;5064720;28;45403;-82
2021/12/01 08:34:34;;;;;;;;;0.00;0.00;;;;;10.12;79.21;99653.84;5068794;28;45397;-82
2021/12/01 08:36:59;;;;;;;;;0.00;0.00;;;;;9.85;78.98;99595.94;5086298;27;45425;-82
2021/12/01 08:39:24;;;;;;;;;0.00;0.00;;;;;10.07;78.82;99624.38;5076088;28;45485;-80
2021/12/01 08:41:50;;;;;;;;;0.00;0.00;;;;;10.23;78.56;99651.16;5080114;28;45396;-80
2021/12/01 08:44:16;;;;;;;;;0.00;0.00;;;;;10.01;78.13;99605.38;5066564;28;45386;-81
2021/12/01 08:46:41;;;;;;;;;0.00;0.00;;;;;10.32;78.01;99655.44;5074138;28;45460;-81
2021/12/01 08:49:07;;;;;;;;;0.00;0.00;;;;;10.24;77.77;99627.75;5073914;28;45453;-82
2021/12/01 08:51:33;;;;;;;;;0.00;0.00;;;;;10.12;77.14;99597.50;5071259;28;45557;-81
2021/12/01 08:53:58;;;;;;;;;0.00;0.00;;;;;10.20;77.31;99593.97;5053198;28;45334;-82
2021/12/01 08:56:24;;;;;;;;;0.00;0.00;;;;;10.36;76.62;99612.91;5077663;28;45804;-81
2021/12/01 08:58:52;;;;;;;;;0.00;0.00;;;;;10.31;76.67;99586.94;5071628;28;45351;-82
2021/12/01 09:01:17;;;;;;;;;0.00;0.00;;;;;10.62;75.92;99623.13;5079281;28;46277;-82
2021/12/01 09:03:42;;;;;;;;;0.00;0.00;;;;;10.56;75.67;99594.53;5067424;28;45445;-82
2021/12/01 09:06:08;;;;;;;;;0.00;0.00;;;;;10.74;75.13;99597.84;5049678;28;45733;-82
2021/12/01 09:08:34;;;;;;;;;0.00;0.00;;;;;10.90;74.91;99635.84;5068750;28;45392;-81
2021/12/01 09:11:03;;;;;;;;;0.00;0.00;;;;;10.69;74.89;99592.66;5069453;28;45501;-81
2021/12/01 09:13:32;;;;;;;;;0.00;0.00;;;;;10.92;74.51;99630.63;5076672;28;45220;-80
2021/12/01 09:15:57;;;;;;;;;0.75;0.00;;;;;10.62;74.50;99584.06;5079247;28;45425;-81
2021/12/01 09:18:25;;;;;;;;;0.00;0.00;;;;;10.86;74.05;99630.69;5092686;27;45601;-82
2021/12/01 09:20:51;;;;;;;;;0.00;0.00;;;;;10.82;74.35;99622.06;5061297;28;46113;-81
2021/12/01 09:23:17;;;;;;;;;0.00;0.00;;;;;10.73;73.71;99607.41;5067689;28;45426;-82
2021/12/01 09:25:44;;;;;;;;;0.00;0.00;;;;;10.76;73.66;99609.09;5073720;28;45513;-80
2021/12/01 09:28:11;;;;;;;;;0.00;0.00;;;;;10.63;73.26;99603.16;5074752;28;45562;-81
2021/12/01 09:30:36;;;;;;;;;0.00;0.00;;;;;10.52;73.63;99595.44;5082142;28;45662;-80
2021/12/01 09:33:02;;;;;;;;;0.00;0.00;;;;;10.58;73.40;99605.81;5076614;28;45300;-82
2021/12/01 09:35:27;;;;;;;;;0.00;0.00;;;;;10.64;73.43;99626.56;5073247;28;45357;-82
2021/12/01 09:37:52;;;;;;;;;0.00;0.00;;;;;10.22;73.36;99566.19;5078206;28;45495;-82
2021/12/01 09:40:19;;;;;;;;;0.00;0.00;;;;;10.41;73.33;99611.13;5065434;28;45357;-82
2021/12/01 09:42:48;;;;;;;;;0.00;0.00;;;;;10.60;73.16;99650.88;5076232;28;45390;-82
2021/12/01 09:45:16;;;;;;;;;0.00;0.00;;;;;10.63;73.36;99647.41;5069302;28;45688;-83
2021/12/01 09:47:41;;;;;;;;;0.00;0.00;;;;;10.51;72.71;99630.16;5044447;28;45169;-81
2021/12/01 09:50:08;;;;;;;;;0.00;0.00;;;;;10.69;72.68;99652.53;5075175;28;46021;-80
2021/12/01 09:52:33;;;;;;;;;0.00;0.00;;;;;10.44;72.47;99608.50;5070786;28;45442;-80
2021/12/01 09:54:59;;;;;;;;;0.00;0.00;;;;;10.77;72.24;99661.16;5063349;28;45434;-80
2021/12/01 09:57:24;;;;;;;;;0.00;0.00;;;;;10.69;71.97;99655.13;5059857;28;45406;-83
2021/12/01 09:59:50;;;;;;;;;0.00;0.00;;;;;10.73;72.13;99656.88;5067098;28;46025;-82
2021/12/01 10:02:17;;;;;;;;;0.00;0.00;;;;;10.74;71.82;99655.09;5070994;28;45442;-80
2021/12/01 10:04:42;;;;;;;;;0.00;0.00;;;;;10.48;71.71;99614.56;5071102;28;45365;-81
2021/12/01 10:07:17;;;;;;;;;0.00;0.00;;;;;10.53;71.51;99625.78;5074156;28;45468;-82
2021/12/01 10:09:44;;;;;;;;;0.00;0.00;;;;;10.56;71.51;99636.19;5076310;28;45303;-82
2021/12/01 10:12:11;;;;;;;;;0.00;0.00;;;;;10.79;71.40;99674.16;5080454;28;45755;-82
2021/12/01 10:14:36;;;;;;;;;0.00;0.00;;;;;10.69;71.27;99654.28;5079783;28;45384;-80
2021/12/01 10:17:02;;;;;;;;;0.00;0.00;;;;;10.49;70.76;99639.72;5069986;28;45839;-86
2021/12/01 10:19:28;;;;;;;;;0.00;0.00;;;;;10.61;71.67;99672.56;5064871;28;45690;-82
2021/12/01 10:21:54;;;;;;;;;0.00;0.00;;;;;10.49;71.81;99669.22;5060420;28;45443;-82
2021/12/01 10:24:25;;;;;;;;;0.00;0.00;;;;;10.35;71.96;99652.81;5060200;28;45422;-82
2021/12/01 10:26:54;;;;;;;;;0.75;0.00;;;;;10.19;72.18;99644.25;5069859;28;45392;-81
2021/12/01 10:29:27;;;;;;;;;0.00;0.00;;;;;10.11;72.51;99652.97;5079139;28;46610;-82
2021/12/01 10:31:58;;;;;;;;;0.00;0.00;;;;;9.83;72.43;99615.91;5075107;28;45443;-85
2021/12/01 10:34:31;;;;;;;;;0.00;0.00;;;;;9.96;72.41;99653.06;5059701;28;45558;-87
2021/12/01 10:37:23;;;;;;;;;0.00;0.00;;;;;9.65;73.32;99619.47;5061018;28;45618;-86
2021/12/01 10:40:12;;;;;;;;;0.00;0.00;;;;;9.38;73.75;99597.06;5063259;28;45528;-83
2021/12/01 10:43:00;;;;;;;;;0.00;0.00;;;;;9.89;74.43;99678.22;5063171;28;45319;-88
2021/12/01 10:45:31;;;;;;;;;0.00;0.00;;;;;9.87;74.14;99686.03;5066141;28;45221;-88
2021/12/01 10:47:57;;;;;;;;;0.00;0.00;;;;;9.87;74.40;99680.00;5061361;28;45653;-86
2021/12/01 10:50:25;;;;;;;;;0.00;0.00;;;;;9.71;74.49;99664.47;5061081;28;45294;-86
2021/12/01 10:53:00;;;;;;;;;0.00;0.00;;;;;9.84;74.35;99687.81;5060991;28;45636;-83
2021/12/01 10:55:26;;;;;;;;;0.00;0.00;;;;;9.87;74.65;99686.03;5041737;28;45802;-85
2021/12/01 10:58:01;;;;;;;;;0.00;0.00;;;;;9.80;74.17;99663.56;5041796;28;45451;-83
2021/12/01 11:00:43;;;;;;;;;0.00;0.00;;;;;9.82;74.07;99676.53;5048932;28;48002;-86
2021/12/01 11:03:15;;;;;;;;;0.00;0.00;;;;;9.80;74.01;99671.34;5074824;28;45298;-84
2021/12/01 11:05:44;;;;;;;;;0.00;0.00;;;;;9.89;74.10;99684.31;5060346;28;45271;-84
2021/12/01 11:08:31;;;;;;;;;0.00;0.00;;;;;9.93;74.08;99679.97;5047172;28;45311;-84
2021/12/01 11:10:59;;;;;;;;;0.00;0.00;;;;;9.99;74.13;99668.66;5069320;28;46043;-81
2021/12/01 11:13:26;;;;;;;;;0.00;0.00;;;;;10.10;73.83;99666.84;5079200;28;45320;-82
2021/12/01 11:15:52;;;;;;;;;0.00;0.00;;;;;10.05;74.04;99673.84;5082007;27;45338;-84
2021/12/01 11:18:27;;;;;;;;;0.00;0.00;;;;;10.01;73.94;99657.38;5083692;28;45308;-80
2021/12/01 11:20:55;;;;;;;;;0.00;0.00;;;;;9.99;73.68;99664.31;5073800;28;45471;-85
2021/12/01 11:23:30;;;;;;;;;0.00;0.00;;;;;9.60;73.88;99599.56;5064047;28;45439;-85
2021/12/01 11:26:07;;;;;;;;;0.00;0.00;;;;;9.45;73.98;99578.84;5064768;28;45356;-84
2021/12/01 11:28:37;;;;;;;;;1.25;0.00;;;;;10.05;73.80;99657.34;5080839;27;45621;-86
2021/12/01 11:31:06;;;;;;;;;0.00;0.00;;;;;9.94;73.72;99614.09;5062690;28;45612;-79
2021/12/01 11:33:32;;;;;;;;;0.00;0.00;;;;;10.38;73.38;99660.56;5079479;28;45556;-81
2021/12/01 11:36:06;;;;;;;;;0.00;0.00;;;;;10.51;73.21;99664.00;5064955;28;45397;-81
2021/12/01 11:38:32;;;;;;;;;0.00;0.00;;;;;10.47;72.24;99628.44;5073627;28;45305;-82
2021/12/01 11:40:59;;;;;;;;;0.25;0.00;;;;;10.76;72.31;99649.00;5071291;28;45363;-78
2021/12/01 11:43:27;;;;;;;;;0.00;0.00;;;;;10.84;72.14;99651.53;5063907;28;45327;-81
2021/12/01 11:45:53;;;;;;;;;0.00;0.00;;;;;10.94;71.65;99630.63;5068897;28;45345;-81